Time;durP1;ratioP1;P1;durP2;ratioP2;P2;SDS_P1;SDS_P2;PMS_P1;PMS_P2;Temp;Humidity;BMP_temperature;BMP_pressure;BME280_temperature;BME280_humidity;BME280_pressure;Samples;Min_cycle;Max_cycle;Signal;HPM_P1;HPM_P2
2021/04/29 00:00:38;;;;;;;16.98;10.80;;;9.30;94.10;;;;;;5096451;28;20102;-72
2021/04/29 00:03:04;;;;;;;21.88;11.85;;;9.30;94.10;;;;;;5113645;28;20058;-72
2021/04/29 00:05:30;;;;;;;19.65;11.07;;;9.30;94.40;;;;;;5097013;28;20062;-72
2021/04/29 00:07:56;;;;;;;20.38;11.50;;;9.30;94.40;;;;;;5094320;28;20040;-72
2021/04/29 00:10:29;;;;;;;19.80;11.48;;;9.20;94.50;;;;;;5112328;28;20076;-73
2021/04/29 00:12:54;;;;;;;20.83;12.32;;;9.30;94.50;;;;;;5112081;28;20637;-72
2021/04/29 00:15:21;;;;;;;19.25;12.00;;;9.30;94.60;;;;;;5101136;28;20081;-73
2021/04/29 00:17:46;;;;;;;18.10;11.40;;;9.20;94.60;;;;;;5095378;28;20399;-72
2021/04/29 00:20:16;;;;;;;23.98;12.20;;;9.30;94.80;;;;;;5100756;28;20380;-72
2021/04/29 00:22:44;;;;;;;23.83;12.27;;;9.30;94.90;;;;;;5113474;28;20039;-72
2021/04/29 00:25:11;;;;;;;21.20;12.23;;;9.20;95.20;;;;;;5111797;27;20039;-72
2021/04/29 00:27:37;;;;;;;18.17;12.30;;;9.20;95.30;;;;;;5095201;28;20483;-72
2021/04/29 00:30:05;;;;;;;24.25;12.93;;;9.20;95.50;;;;;;5113133;28;20031;-72
2021/04/29 00:32:31;;;;;;;20.30;12.20;;;9.20;95.30;;;;;;5113368;28;20027;-73
2021/04/29 00:34:57;;;;;;;20.52;12.32;;;9.30;95.60;;;;;;5104645;28;20035;-73
2021/04/29 00:37:23;;;;;;;17.48;12.70;;;9.20;95.60;;;;;;5113510;28;20032;-72
2021/04/29 00:39:48;;;;;;;21.85;11.55;;;9.20;95.50;;;;;;5093541;28;20069;-72
2021/04/29 00:42:15;;;;;;;20.80;12.93;;;9.20;95.50;;;;;;5086491;28;20036;-72
2021/04/29 00:44:41;;;;;;;16.35;12.15;;;9.20;95.50;;;;;;5098884;28;20100;-72
2021/04/29 00:47:07;;;;;;;25.17;13.88;;;9.30;95.90;;;;;;5101380;28;20064;-72
2021/04/29 00:49:35;;;;;;;22.77;13.77;;;9.30;96.10;;;;;;5082678;28;20061;-72
2021/04/29 00:52:01;;;;;;;20.00;12.93;;;9.20;96.80;;;;;;5094199;28;20047;-73
2021/04/29 00:54:27;;;;;;;23.65;14.00;;;9.10;96.70;;;;;;5095116;28;20038;-73
2021/04/29 00:56:53;;;;;;;22.42;13.55;;;9.10;96.80;;;;;;5110977;28;20036;-73
2021/04/29 00:59:19;;;;;;;24.30;14.07;;;9.20;97.20;;;;;;5094872;28;20386;-73
2021/04/29 01:01:48;;;;;;;22.42;14.02;;;9.30;97.50;;;;;;5112988;28;20102;-73
2021/04/29 01:04:35;;;;;;;24.70;14.70;;;9.10;97.20;;;;;;5112691;28;20106;-73
2021/04/29 01:07:10;;;;;;;25.55;14.48;;;9.10;97.40;;;;;;5112875;28;20107;-72
2021/04/29 01:09:48;;;;;;;22.92;14.82;;;9.10;97.40;;;;;;5094686;28;20039;-73
2021/04/29 01:12:27;;;;;;;23.92;14.10;;;9.20;97.30;;;;;;5111496;28;20056;-73
2021/04/29 01:14:55;;;;;;;25.13;14.60;;;9.10;97.50;;;;;;5111328;28;20069;-72
2021/04/29 01:17:33;;;;;;;23.38;14.73;;;9.10;97.60;;;;;;5098510;28;20122;-73
2021/04/29 01:20:20;;;;;;;22.25;14.27;;;9.00;97.90;;;;;;5116569;28;20038;-72
2021/04/29 01:23:04;;;;;;;25.85;13.73;;;9.00;97.90;;;;;;5098789;28;20403;-72
2021/04/29 01:25:32;;;;;;;27.15;14.35;;;9.00;97.90;;;;;;5103831;28;20031;-72
2021/04/29 01:27:59;;;;;;;25.05;14.80;;;9.00;97.80;;;;;;5096927;28;20040;-72
2021/04/29 01:30:26;;;;;;;23.17;13.98;;;9.00;97.80;;;;;;5116379;28;20032;-73
2021/04/29 01:32:52;;;;;;;25.13;14.38;;;9.00;97.90;;;;;;5116486;28;20042;-73
2021/04/29 01:35:18;;;;;;;23.60;14.13;;;8.90;97.90;;;;;;5116279;28;20028;-72
2021/04/29 01:37:45;;;;;;;25.90;14.20;;;8.90;98.20;;;;;;5098468;28;20046;-72
2021/04/29 01:40:12;;;;;;;24.45;13.77;;;8.90;98.10;;;;;;5116312;28;20040;-72
2021/04/29 01:42:39;;;;;;;22.08;14.82;;;8.90;98.10;;;;;;5116800;28;20098;-72
2021/04/29 01:45:06;;;;;;;25.10;14.63;;;8.90;97.90;;;;;;5096575;28;20031;-72
2021/04/29 01:47:34;;;;;;;24.60;12.85;;;9.00;98.00;;;;;;5109698;28;20058;-72
2021/04/29 01:50:11;;;;;;;21.23;13.88;;;9.00;97.90;;;;;;5096280;28;20068;-73
2021/04/29 01:52:37;;;;;;;24.35;13.27;;;9.00;97.90;;;;;;5112495;28;20550;-72
2021/04/29 01:55:04;;;;;;;24.60;14.20;;;9.00;97.90;;;;;;5116058;28;20055;-72
2021/04/29 01:57:30;;;;;;;22.08;13.13;;;9.00;97.80;;;;;;5098094;28;20043;-72
2021/04/29 01:59:57;;;;;;;20.00;14.23;;;9.00;98.10;;;;;;5116312;28;20047;-72
2021/04/29 02:02:26;;;;;;;27.95;13.77;;;9.20;98.10;;;;;;5107830;27;20066;-72
2021/04/29 02:04:52;;;;;;;25.48;12.82;;;8.90;98.10;;;;;;5115885;28;20047;-72
2021/04/29 02:07:18;;;;;;;22.00;13.68;;;8.90;98.20;;;;;;5102924;28;20415;-72
2021/04/29 02:09:44;;;;;;;23.85;13.27;;;8.90;98.30;;;;;;5115924;28;20062;-72
2021/04/29 02:12:12;;;;;;;24.17;13.48;;;8.90;98.30;;;;;;5115717;28;20032;-72
2021/04/29 02:14:46;;;;;;;20.35;13.52;;;8.90;98.30;;;;;;5098268;28;20086;-72
2021/04/29 02:17:41;;;;;;;21.75;13.13;;;8.90;98.30;;;;;;5115665;28;20115;-72
2021/04/29 02:20:10;;;;;;;23.15;13.75;;;8.90;98.30;;;;;;5107700;28;20035;-72
2021/04/29 02:22:41;;;;;;;21.52;13.80;;;8.90;98.30;;;;;;5115952;28;20046;-72
2021/04/29 02:25:12;;;;;;;21.90;13.80;;;8.90;98.30;;;;;;5115940;28;20035;-72
2021/04/29 02:27:38;;;;;;;22.88;13.85;;;8.90;98.40;;;;;;5115269;28;20071;-72
2021/04/29 02:30:13;;;;;;;20.58;13.05;;;8.90;98.50;;;;;;5115350;28;20032;-72
2021/04/29 02:32:39;;;;;;;20.65;13.43;;;8.90;98.50;;;;;;5115560;28;20032;-72
2021/04/29 02:35:08;;;;;;;23.92;13.93;;;8.90;98.50;;;;;;5113596;28;20027;-72
2021/04/29 02:37:36;;;;;;;21.52;13.30;;;8.90;98.30;;;;;;5115096;28;20036;-72
2021/04/29 02:40:05;;;;;;;29.33;14.25;;;9.00;98.10;;;;;;5097456;28;20433;-72
2021/04/29 02:42:32;;;;;;;24.70;13.70;;;9.00;98.10;;;;;;5097330;28;20134;-72
2021/04/29 02:44:58;;;;;;;22.85;13.50;;;9.10;98.00;;;;;;5115547;28;20040;-73
2021/04/29 02:47:24;;;;;;;22.60;14.15;;;9.10;98.00;;;;;;5097208;28;20052;-74
2021/04/29 02:49:50;;;;;;;20.40;14.10;;;9.50;98.00;;;;;;5096963;28;20104;-74
2021/04/29 02:52:18;;;;;;;25.63;14.13;;;9.10;97.90;;;;;;5095546;28;20047;-73
2021/04/29 02:54:45;;;;;;;34.00;14.85;;;9.20;98.00;;;;;;5107183;28;20032;-73
2021/04/29 02:57:22;;;;;;;26.85;14.10;;;9.10;98.10;;;;;;5093005;28;20040;-73
2021/04/29 02:59:48;;;;;;;22.90;15.35;;;9.40;98.10;;;;;;5088878;28;20036;-73
2021/04/29 03:02:15;;;;;;;25.30;15.02;;;9.00;98.20;;;;;;5093118;28;20057;-73
2021/04/29 03:04:41;;;;;;;21.65;15.00;;;8.90;98.30;;;;;;5106947;28;20032;-72
2021/04/29 03:07:07;;;;;;;22.98;14.52;;;9.20;98.40;;;;;;5110890;28;20035;-72
2021/04/29 03:09:33;;;;;;;25.63;14.45;;;9.00;98.20;;;;;;5111886;28;20079;-72
2021/04/29 03:11:59;;;;;;;23.88;15.50;;;9.00;98.10;;;;;;5114719;28;20027;-73
2021/04/29 03:14:25;;;;;;;21.08;15.07;;;9.10;98.20;;;;;;5096668;28;20176;-72
2021/04/29 03:16:50;;;;;;;26.55;14.65;;;9.00;98.30;;;;;;5113713;28;20031;-73
2021/04/29 03:19:16;;;;;;;23.13;15.48;;;8.90;98.40;;;;;;5113841;28;20038;-73
2021/04/29 03:21:42;;;;;;;23.45;15.32;;;9.50;98.50;;;;;;5113712;28;20383;-73
2021/04/29 03:24:08;;;;;;;22.85;14.93;;;9.10;98.60;;;;;;5094458;28;20089;-72
2021/04/29 03:26:35;;;;;;;24.63;15.88;;;8.90;98.70;;;;;;5113793;28;20092;-72
2021/04/29 03:29:01;;;;;;;27.60;16.20;;;8.90;98.70;;;;;;5113050;28;20032;-72
2021/04/29 03:31:27;;;;;;;24.73;16.25;;;8.90;98.80;;;;;;5110800;28;20144;-72
2021/04/29 03:33:55;;;;;;;26.92;15.55;;;8.90;99.00;;;;;;5113346;28;20032;-72
2021/04/29 03:36:21;;;;;;;24.67;16.83;;;8.80;99.00;;;;;;5113330;28;20040;-72
2021/04/29 03:38:46;;;;;;;25.48;16.10;;;9.00;99.10;;;;;;5112780;28;20501;-72
2021/04/29 03:41:12;;;;;;;27.73;16.85;;;9.20;99.50;;;;;;5093919;28;20038;-73
2021/04/29 03:43:38;;;;;;;26.63;16.90;;;8.80;99.40;;;;;;5113195;28;20032;-73
2021/04/29 03:46:04;;;;;;;26.52;17.00;;;8.80;99.80;;;;;;5093474;28;20047;-73
2021/04/29 03:48:30;;;;;;;26.13;16.48;;;8.70;99.50;;;;;;5113059;28;20031;-73
2021/04/29 03:50:55;;;;;;;29.08;17.92;;;9.10;99.70;;;;;;5112742;28;20038;-73
2021/04/29 03:53:21;;;;;;;28.50;17.58;;;8.90;99.90;;;;;;5094940;28;20035;-74
2021/04/29 03:55:47;;;;;;;29.73;17.73;;;8.70;99.80;;;;;;5094573;28;20123;-74
2021/04/29 03:58:13;;;;;;;31.90;18.05;;;8.70;99.90;;;;;;5109780;28;20071;-74
2021/04/29 04:00:38;;;;;;;28.92;18.08;;;8.70;99.90;;;;;;5094249;28;20107;-74
2021/04/29 04:03:04;;;;;;;32.33;19.58;;;8.70;99.90;;;;;;5077336;28;20055;-74
2021/04/29 04:05:30;;;;;;;29.27;19.52;;;8.60;99.90;;;;;;5112567;28;20043;-74
2021/04/29 04:07:56;;;;;;;36.80;20.77;;;8.60;99.90;;;;;;5077265;28;20031;-74
2021/04/29 04:10:22;;;;;;;39.63;22.20;;;8.60;99.90;;;;;;5094178;28;20039;-73
2021/04/29 04:12:48;;;;;;;35.38;21.45;;;8.60;99.90;;;;;;5113213;28;20038;-73
2021/04/29 04:15:13;;;;;;;33.15;21.48;;;8.60;99.90;;;;;;5111761;28;20039;-73
2021/04/29 04:17:39;;;;;;;35.22;21.63;;;8.60;99.90;;;;;;5093028;28;20039;-73
2021/04/29 04:20:06;;;;;;;30.95;20.42;;;8.60;99.90;;;;;;5110011;28;20028;-73
2021/04/29 04:22:31;;;;;;;33.20;20.40;;;8.60;99.90;;;;;;5099344;28;20036;-73
2021/04/29 04:24:57;;;;;;;35.30;19.55;;;8.60;99.90;;;;;;5092300;28;20475;-74
2021/04/29 04:27:24;;;;;;;30.20;18.45;;;8.60;99.90;;;;;;5109012;28;20036;-74
2021/04/29 04:29:49;;;;;;;26.52;18.48;;;8.60;99.90;;;;;;5093190;28;20068;-74
2021/04/29 04:32:18;;;;;;;25.60;18.20;;;8.70;99.90;;;;;;5085203;28;20387;-74
2021/04/29 04:34:45;;;;;;;29.88;18.33;;;8.70;99.90;;;;;;5092416;28;20041;-74
2021/04/29 04:37:11;;;;;;;30.80;18.95;;;8.70;99.90;;;;;;5107948;28;20039;-74
2021/04/29 04:39:36;;;;;;;28.25;19.02;;;8.60;99.90;;;;;;5110691;28;20036;-73
2021/04/29 04:42:03;;;;;;;37.40;19.40;;;8.70;99.90;;;;;;5109421;28;20039;-74
2021/04/29 04:44:29;;;;;;;32.97;18.90;;;8.50;99.90;;;;;;5091613;28;20055;-74
2021/04/29 04:46:55;;;;;;;28.60;19.50;;;8.60;99.90;;;;;;5108931;28;20133;-74
2021/04/29 04:49:21;;;;;;;32.13;19.65;;;8.60;99.90;;;;;;5094096;28;20028;-74
2021/04/29 04:51:47;;;;;;;29.25;19.63;;;8.60;99.90;;;;;;5109275;28;20097;-74
2021/04/29 04:54:17;;;;;;;35.85;19.67;;;8.70;99.90;;;;;;5081728;28;20043;-74
2021/04/29 04:56:43;;;;;;;35.60;19.75;;;8.50;99.90;;;;;;5096966;28;20066;-73
2021/04/29 04:59:09;;;;;;;29.48;19.88;;;8.60;99.90;;;;;;5105782;28;20457;-73
2021/04/29 05:01:34;;;;;;;35.20;18.70;;;8.50;99.90;;;;;;5111285;28;20039;-73
2021/04/29 05:04:00;;;;;;;32.90;20.02;;;8.90;99.90;;;;;;5107655;28;20030;-73
2021/04/29 05:06:26;;;;;;;32.90;19.40;;;8.60;99.90;;;;;;5111946;28;20036;-73
2021/04/29 05:08:52;;;;;;;32.00;19.27;;;8.60;99.90;;;;;;5109325;28;20035;-72
2021/04/29 05:11:17;;;;;;;31.02;18.70;;;8.50;99.90;;;;;;5113168;28;20050;-73
2021/04/29 05:13:43;;;;;;;31.60;18.92;;;8.50;99.90;;;;;;5098091;28;20076;-73
2021/04/29 05:16:09;;;;;;;34.38;19.33;;;8.50;99.90;;;;;;5112901;28;20039;-73
2021/04/29 05:18:35;;;;;;;34.33;20.30;;;8.40;99.90;;;;;;5094661;28;20036;-72
2021/04/29 05:21:01;;;;;;;33.13;18.55;;;8.40;99.90;;;;;;5113057;28;20073;-73
2021/04/29 05:23:26;;;;;;;30.85;19.27;;;8.40;99.90;;;;;;5108655;28;20032;-72
2021/04/29 05:25:52;;;;;;;32.42;18.88;;;8.50;99.90;;;;;;5112595;28;20112;-72
2021/04/29 05:28:19;;;;;;;31.30;19.58;;;8.50;99.90;;;;;;5077892;28;20549;-73
2021/04/29 05:30:44;;;;;;;32.45;19.73;;;8.50;99.90;;;;;;5112443;28;20036;-72
2021/04/29 05:33:10;;;;;;;28.80;19.35;;;8.50;99.90;;;;;;5105598;28;20758;-72
2021/04/29 05:35:36;;;;;;;37.92;19.85;;;8.50;99.90;;;;;;5112570;28;20047;-73
2021/04/29 05:38:02;;;;;;;35.05;20.25;;;8.50;99.90;;;;;;5111321;28;20114;-73
2021/04/29 05:40:28;;;;;;;30.73;20.63;;;8.50;99.90;;;;;;5112890;28;20032;-73
2021/04/29 05:42:54;;;;;;;40.80;22.30;;;8.50;99.90;;;;;;5112868;28;20036;-73
2021/04/29 05:45:20;;;;;;;37.42;21.40;;;8.50;99.90;;;;;;5094611;28;20322;-73
2021/04/29 05:47:48;;;;;;;36.38;20.95;;;8.50;99.90;;;;;;5094363;28;20027;-73
2021/04/29 05:50:14;;;;;;;37.58;21.30;;;8.70;99.90;;;;;;5095972;28;20042;-72
2021/04/29 05:52:40;;;;;;;41.28;21.88;;;8.40;99.90;;;;;;5111895;28;20056;-73
2021/04/29 05:55:07;;;;;;;39.88;21.50;;;8.50;99.90;;;;;;5077556;28;20036;-77
2021/04/29 05:57:33;;;;;;;37.22;21.00;;;8.50;99.90;;;;;;5093420;28;20035;-73
2021/04/29 05:59:59;;;;;;;33.05;20.55;;;8.50;99.90;;;;;;5112615;28;20035;-78
2021/04/29 06:02:25;;;;;;;34.20;20.70;;;8.60;99.90;;;;;;5114044;28;20156;-79
2021/04/29 06:04:56;;;;;;;38.63;21.30;;;8.60;99.90;;;;;;5116242;28;20130;-79
2021/04/29 06:07:22;;;;;;;39.30;21.60;;;8.60;99.90;;;;;;5116224;28;20049;-77
2021/04/29 06:09:48;;;;;;;33.45;21.25;;;8.60;99.90;;;;;;5114320;27;20035;-76
2021/04/29 06:12:14;;;;;;;35.78;21.15;;;8.80;99.90;;;;;;5108356;28;20047;-75
2021/04/29 06:14:42;;;;;;;33.33;20.92;;;8.60;99.90;;;;;;5098890;28;20391;-75
2021/04/29 06:17:08;;;;;;;31.65;20.30;;;8.90;99.90;;;;;;5103949;28;20043;-75
2021/04/29 06:19:34;;;;;;;36.88;21.60;;;8.80;99.90;;;;;;5104715;27;20031;-75
2021/04/29 06:22:00;;;;;;;35.85;21.13;;;8.70;99.90;;;;;;5069468;27;20074;-75
2021/04/29 06:24:26;;;;;;;34.42;21.63;;;8.50;99.90;;;;;;5101939;27;20059;-75
2021/04/29 06:26:54;;;;;;;38.05;21.25;;;8.70;99.90;;;;;;5088703;28;20126;-76
2021/04/29 06:29:20;;;;;;;35.35;20.80;;;8.80;99.90;;;;;;5104196;27;20039;-76
2021/04/29 06:31:49;;;;;;;38.97;21.65;;;8.90;99.90;;;;;;5068198;27;20248;-76
2021/04/29 06:34:15;;;;;;;35.80;20.75;;;8.90;99.90;;;;;;5105697;27;20435;-79
2021/04/29 06:36:43;;;;;;;39.03;21.25;;;9.30;99.90;;;;;;5094481;27;20085;-76
2021/04/29 06:39:21;;;;;;;32.67;21.75;;;9.60;99.90;;;;;;5092744;27;20040;-76
2021/04/29 06:41:53;;;;;;;33.90;20.40;;;9.10;99.90;;;;;;5108254;27;20127;-72
2021/04/29 06:44:19;;;;;;;36.13;21.42;;;9.40;99.90;;;;;;5125571;27;20114;-72
2021/04/29 06:46:45;;;;;;;31.33;20.70;;;9.20;99.90;;;;;;5127457;27;20095;-72
2021/04/29 06:49:13;;;;;;;37.22;22.25;;;9.20;99.90;;;;;;5108899;27;20425;-74
2021/04/29 06:51:40;;;;;;;33.20;21.85;;;9.20;99.90;;;;;;5104093;27;20065;-73
2021/04/29 06:54:12;;;;;;;38.92;22.45;;;9.30;99.90;;;;;;5108047;27;20111;-72
2021/04/29 06:56:40;;;;;;;33.45;21.50;;;9.50;99.90;;;;;;5104736;27;20037;-72
2021/04/29 06:59:06;;;;;;;40.33;23.35;;;9.20;99.90;;;;;;5126353;27;21317;-72
2021/04/29 07:01:32;;;;;;;35.50;21.35;;;9.50;99.90;;;;;;5127695;27;20352;-72
2021/04/29 07:03:58;;;;;;;30.58;20.85;;;9.60;99.90;;;;;;5108385;27;20035;-72
2021/04/29 07:06:25;;;;;;;28.25;21.05;;;9.50;99.90;;;;;;5124097;27;20047;-72
2021/04/29 07:08:50;;;;;;;31.23;20.92;;;9.50;99.90;;;;;;5107694;27;20035;-72
2021/04/29 07:11:17;;;;;;;34.03;21.70;;;9.50;99.90;;;;;;5128398;27;20035;-72
2021/04/29 07:13:43;;;;;;;40.88;22.42;;;9.60;99.90;;;;;;5092775;27;20436;-72
2021/04/29 07:16:09;;;;;;;34.28;20.48;;;9.60;99.90;;;;;;5127421;27;20119;-72
2021/04/29 07:18:35;;;;;;;33.10;20.98;;;9.60;99.90;;;;;;5090653;27;20471;-74
2021/04/29 07:21:00;;;;;;;31.35;20.25;;;9.60;99.90;;;;;;5105729;27;21343;-74
2021/04/29 07:23:26;;;;;;;38.05;21.27;;;9.60;99.90;;;;;;5104544;27;20088;-74
2021/04/29 07:25:52;;;;;;;34.25;21.08;;;9.70;99.90;;;;;;5121326;27;20050;-74
2021/04/29 07:28:20;;;;;;;30.98;20.83;;;9.80;99.90;;;;;;5104859;27;20032;-74
2021/04/29 07:30:47;;;;;;;33.50;20.35;;;9.80;99.90;;;;;;5073548;27;20106;-74
2021/04/29 07:33:13;;;;;;;32.83;21.23;;;9.80;99.90;;;;;;5123739;27;20041;-75
2021/04/29 07:35:40;;;;;;;35.17;20.58;;;9.80;99.90;;;;;;5103191;27;21473;-74
2021/04/29 07:38:10;;;;;;;32.92;20.67;;;9.90;99.90;;;;;;5104907;27;20049;-74
2021/04/29 07:40:38;;;;;;;29.08;19.77;;;9.90;99.90;;;;;;5122013;27;20510;-74
2021/04/29 07:43:05;;;;;;;31.20;20.90;;;9.90;99.90;;;;;;5125333;27;20035;-74
2021/04/29 07:45:31;;;;;;;33.03;21.15;;;9.90;99.90;;;;;;5124640;27;20043;-74
2021/04/29 07:47:58;;;;;;;28.17;20.77;;;9.90;99.90;;;;;;5122588;27;20048;-75
2021/04/29 07:50:24;;;;;;;31.88;20.15;;;9.80;99.90;;;;;;5124227;27;20071;-74
2021/04/29 07:52:50;;;;;;;32.45;20.15;;;9.80;99.90;;;;;;5106754;27;20051;-75
2021/04/29 07:55:17;;;;;;;25.30;19.85;;;9.90;99.90;;;;;;5125961;27;20039;-74
2021/04/29 07:57:43;;;;;;;32.97;21.20;;;10.20;99.90;;;;;;5107180;27;20035;-74
2021/04/29 08:00:12;;;;;;;30.90;20.27;;;9.90;99.90;;;;;;5105492;27;20039;-74
2021/04/29 08:02:41;;;;;;;36.00;20.42;;;9.90;99.90;;;;;;5103119;27;20119;-74
2021/04/29 08:05:17;;;;;;;38.55;21.80;;;10.00;99.90;;;;;;5123891;27;20064;-74
2021/04/29 08:07:45;;;;;;;30.23;20.05;;;10.20;99.90;;;;;;5104414;28;20051;-74
2021/04/29 08:10:28;;;;;;;35.45;20.15;;;10.00;99.90;;;;;;5109220;27;20497;-74
2021/04/29 08:12:54;;;;;;;32.45;22.55;;;10.00;99.90;;;;;;5125143;27;20479;-73
2021/04/29 08:15:20;;;;;;;33.30;22.00;;;10.00;99.90;;;;;;5125586;27;20130;-73
2021/04/29 08:17:46;;;;;;;36.63;23.33;;;10.00;99.90;;;;;;5124028;27;20125;-73
2021/04/29 08:20:12;;;;;;;31.55;23.95;;;9.90;99.90;;;;;;5128433;27;20039;-75
2021/04/29 08:22:38;;;;;;;35.20;23.65;;;10.00;99.90;;;;;;5108207;27;20534;-73
2021/04/29 08:25:05;;;;;;;34.80;23.52;;;10.00;99.90;;;;;;5108569;27;20106;-73
2021/04/29 08:27:31;;;;;;;34.35;23.90;;;9.90;99.90;;;;;;5124080;27;20036;-73
2021/04/29 08:29:57;;;;;;;34.63;24.30;;;10.00;99.90;;;;;;5091649;27;20051;-75
2021/04/29 08:32:23;;;;;;;37.97;24.92;;;9.80;99.90;;;;;;5128074;27;20117;-75
2021/04/29 08:34:49;;;;;;;38.05;25.92;;;9.70;99.90;;;;;;5118653;27;20479;-73
2021/04/29 08:37:17;;;;;;;33.15;26.45;;;9.70;99.90;;;;;;5090675;27;20077;-73
2021/04/29 08:39:43;;;;;;;35.90;25.40;;;9.80;99.90;;;;;;5109475;27;20042;-73
2021/04/29 08:42:13;;;;;;;36.83;25.90;;;9.70;99.90;;;;;;5109906;27;20049;-74
2021/04/29 08:44:39;;;;;;;34.95;24.95;;;9.70;99.90;;;;;;5127385;27;20042;-74
2021/04/29 08:47:06;;;;;;;34.95;24.92;;;9.80;99.90;;;;;;5123892;27;20081;-73
2021/04/29 08:49:35;;;;;;;35.53;25.38;;;9.90;99.90;;;;;;5074056;27;20035;-73
2021/04/29 08:52:07;;;;;;;37.90;25.65;;;9.90;99.90;;;;;;5101475;27;20077;-73
2021/04/29 08:54:36;;;;;;;37.50;25.40;;;9.90;99.90;;;;;;5124488;27;20070;-73
2021/04/29 08:57:03;;;;;;;39.42;26.42;;;9.90;99.90;;;;;;5124132;27;20035;-73
2021/04/29 08:59:29;;;;;;;38.65;26.95;;;9.80;99.90;;;;;;5104114;28;20042;-73
2021/04/29 09:01:55;;;;;;;41.58;26.77;;;9.80;99.90;;;;;;5103583;27;20193;-77
2021/04/29 09:04:21;;;;;;;39.42;28.42;;;9.90;99.90;;;;;;5101376;28;20139;-77
2021/04/29 09:06:55;;;;;;;38.22;26.55;;;9.80;99.90;;;;;;5103086;28;20055;-77
2021/04/29 09:09:20;;;;;;;38.72;26.90;;;9.90;99.90;;;;;;5123366;27;20041;-77
2021/04/29 09:11:55;;;;;;;37.85;27.02;;;9.80;99.90;;;;;;5104862;28;20398;-77
2021/04/29 09:14:36;;;;;;;35.83;25.88;;;9.80;99.90;;;;;;5108042;27;20034;-77
2021/04/29 09:17:02;;;;;;;35.55;26.00;;;9.80;99.90;;;;;;5104006;28;20070;-77
2021/04/29 09:19:35;;;;;;;36.90;26.45;;;10.00;99.90;;;;;;5121102;28;20028;-77
2021/04/29 09:22:01;;;;;;;37.10;27.40;;;9.70;99.90;;;;;;5120868;28;20909;-77
2021/04/29 09:24:39;;;;;;;37.45;28.02;;;9.80;99.90;;;;;;5117190;28;20041;-76
2021/04/29 09:27:14;;;;;;;37.10;28.15;;;9.80;99.90;;;;;;5120670;28;20044;-77
2021/04/29 09:30:02;;;;;;;33.28;27.70;;;9.80;99.90;;;;;;5121273;28;20059;-77
2021/04/29 09:32:36;;;;;;;38.05;26.50;;;9.80;99.90;;;;;;5120225;27;20035;-72
2021/04/29 09:35:06;;;;;;;35.72;27.30;;;9.80;99.90;;;;;;5099591;27;20039;-74
2021/04/29 09:37:38;;;;;;;38.65;28.33;;;9.80;99.90;;;;;;5119636;27;20035;-74
2021/04/29 09:40:20;;;;;;;36.15;28.10;;;9.80;99.90;;;;;;5123095;27;20035;-73
2021/04/29 09:42:47;;;;;;;43.00;28.27;;;9.80;99.90;;;;;;5106586;27;20700;-73
2021/04/29 09:45:26;;;;;;;37.30;28.63;;;9.80;99.90;;;;;;5124194;27;20098;-73
2021/04/29 09:47:58;;;;;;;36.22;27.35;;;9.80;99.90;;;;;;5108594;27;20039;-74
2021/04/29 09:50:31;;;;;;;33.65;27.13;;;9.80;99.90;;;;;;5104155;27;20039;-73
2021/04/29 09:53:08;;;;;;;39.13;27.13;;;9.80;99.90;;;;;;5106696;27;20050;-73
2021/04/29 09:55:37;;;;;;;34.85;25.52;;;9.90;99.90;;;;;;5112262;27;20459;-73
2021/04/29 09:58:14;;;;;;;36.67;28.00;;;9.90;99.90;;;;;;5106160;27;20060;-74
2021/04/29 10:00:55;;;;;;;40.47;28.35;;;9.90;99.90;;;;;;5096351;27;20126;-74
2021/04/29 10:03:21;;;;;;;37.65;28.92;;;10.00;99.90;;;;;;5059916;27;20050;-74
2021/04/29 10:05:53;;;;;;;42.45;27.55;;;10.00;99.90;;;;;;5108607;27;20402;-74
2021/04/29 10:08:24;;;;;;;33.72;27.08;;;10.00;99.90;;;;;;5125067;27;20540;-73
2021/04/29 10:10:56;;;;;;;35.60;26.70;;;10.10;99.90;;;;;;5105268;27;20411;-74
2021/04/29 10:13:32;;;;;;;39.10;26.50;;;10.00;99.90;;;;;;5123979;27;20027;-72
2021/04/29 10:15:58;;;;;;;37.90;27.05;;;10.00;99.90;;;;;;5103606;27;20070;-73
2021/04/29 10:18:28;;;;;;;38.38;28.23;;;10.00;99.90;;;;;;5125856;27;20023;-73
2021/04/29 10:21:02;;;;;;;39.28;27.58;;;10.10;99.90;;;;;;5127147;27;20945;-73
2021/04/29 10:23:40;;;;;;;40.58;27.63;;;10.10;99.90;;;;;;5129501;27;20036;-73
2021/04/29 10:26:12;;;;;;;41.38;28.15;;;10.10;99.90;;;;;;5129484;27;20044;-72
2021/04/29 10:29:03;;;;;;;39.30;27.83;;;10.10;99.90;;;;;;5126629;27;20406;-73
2021/04/29 10:31:33;;;;;;;35.38;28.42;;;10.10;99.90;;;;;;5127075;27;20036;-73
2021/04/29 10:34:18;;;;;;;34.03;26.27;;;10.20;99.90;;;;;;5124482;27;20063;-73
2021/04/29 10:36:48;;;;;;;37.53;26.95;;;10.50;99.90;;;;;;5106582;27;20122;-72
2021/04/29 10:39:42;;;;;;;38.45;27.67;;;10.20;99.90;;;;;;5122674;27;20039;-72
2021/04/29 10:42:12;;;;;;;32.35;26.35;;;10.20;99.90;;;;;;5110268;27;20027;-73
2021/04/29 10:44:52;;;;;;;34.53;27.70;;;10.10;99.90;;;;;;5123747;27;20043;-72
2021/04/29 10:47:37;;;;;;;36.90;26.80;;;10.10;99.90;;;;;;5128779;27;20046;-73
2021/04/29 10:50:15;;;;;;;33.03;25.65;;;10.10;99.90;;;;;;5121043;27;20044;-73
2021/04/29 10:52:53;;;;;;;37.22;26.25;;;10.00;99.90;;;;;;5127539;27;20054;-73
2021/04/29 10:55:31;;;;;;;35.20;26.45;;;10.00;99.90;;;;;;5107117;27;20088;-76
2021/04/29 10:57:59;;;;;;;34.72;26.40;;;10.60;99.90;;;;;;5125769;27;20035;-73
2021/04/29 11:00:32;;;;;;;36.97;26.08;;;10.10;99.90;;;;;;5124639;27;20032;-73
2021/04/29 11:03:06;;;;;;;35.70;26.00;;;10.00;99.90;;;;;;5123991;27;20027;-73
2021/04/29 11:05:34;;;;;;;37.70;28.00;;;10.10;99.90;;;;;;5128264;27;20044;-73
2021/04/29 11:08:09;;;;;;;38.00;28.27;;;10.10;99.90;;;;;;5109931;27;20027;-73
2021/04/29 11:10:37;;;;;;;36.83;27.17;;;10.10;99.90;;;;;;5107690;27;20031;-73
2021/04/29 11:13:05;;;;;;;41.53;27.75;;;10.10;99.90;;;;;;5107299;27;20436;-73
2021/04/29 11:15:38;;;;;;;37.58;27.23;;;10.10;99.90;;;;;;5129116;27;20054;-73
2021/04/29 11:18:04;;;;;;;39.47;28.45;;;10.10;99.90;;;;;;5130443;27;20043;-77
2021/04/29 11:20:47;;;;;;;37.83;27.98;;;10.00;99.90;;;;;;5130517;27;20111;-73
2021/04/29 11:23:40;;;;;;;36.75;27.98;;;10.00;99.90;;;;;;5128069;27;20047;-73
2021/04/29 11:26:10;;;;;;;41.95;29.65;;;10.10;99.90;;;;;;5124437;27;21983;-73
2021/04/29 11:28:37;;;;;;;36.97;27.95;;;10.10;99.90;;;;;;5106817;27;20035;-73
2021/04/29 11:31:03;;;;;;;47.05;31.75;;;10.10;99.90;;;;;;5102859;27;20118;-73
2021/04/29 11:33:38;;;;;;;44.33;29.15;;;10.10;99.90;;;;;;5103875;27;20159;-73
2021/04/29 11:36:30;;;;;;;40.55;30.30;;;10.10;99.90;;;;;;5122551;27;20054;-73
2021/04/29 11:39:07;;;;;;;49.10;33.33;;;10.20;99.90;;;;;;5098922;27;20035;-73
2021/04/29 11:41:33;;;;;;;39.17;29.55;;;10.60;99.90;;;;;;5096222;27;20039;-73
2021/04/29 11:44:07;;;;;;;39.05;29.48;;;10.20;99.90;;;;;;5122536;27;20043;-73
2021/04/29 11:46:35;;;;;;;41.67;30.63;;;10.20;99.90;;;;;;5114056;27;20043;-73
2021/04/29 11:49:03;;;;;;;39.42;30.30;;;10.30;99.90;;;;;;5121425;27;20990;-73
2021/04/29 11:51:32;;;;;;;47.38;30.75;;;10.30;99.90;;;;;;5121881;27;20085;-73
2021/04/29 11:54:07;;;;;;;39.45;29.35;;;10.30;99.90;;;;;;5098848;28;20129;-73
2021/04/29 11:56:43;;;;;;;40.47;30.52;;;10.30;99.90;;;;;;5099152;28;20521;-73
2021/04/29 11:59:14;;;;;;;38.58;31.83;;;10.40;99.90;;;;;;5096176;28;20028;-73
2021/04/29 12:01:41;;;;;;;41.95;33.83;;;10.30;99.90;;;;;;5102112;28;20036;-74
2021/04/29 12:04:28;;;;;;;37.60;31.00;;;10.30;99.90;;;;;;5100080;28;20055;-73
2021/04/29 12:07:06;;;;;;;46.17;35.17;;;10.40;99.90;;;;;;5103713;28;20485;-73
2021/04/29 12:09:32;;;;;;;46.40;35.25;;;10.30;99.90;;;;;;5099693;28;20390;-74
2021/04/29 12:12:13;;;;;;;45.50;34.00;;;10.40;99.90;;;;;;5102147;28;20034;-73
2021/04/29 12:14:39;;;;;;;54.47;36.55;;;10.40;99.90;;;;;;5098166;28;20040;-74
2021/04/29 12:17:07;;;;;;;52.95;38.65;;;10.40;99.90;;;;;;5098586;28;20035;-75
2021/04/29 12:19:34;;;;;;;43.47;34.50;;;10.40;99.90;;;;;;5083282;28;20035;-75
2021/04/29 12:22:07;;;;;;;47.40;36.15;;;10.50;99.90;;;;;;5081958;28;20471;-75
2021/04/29 12:24:42;;;;;;;49.85;36.85;;;10.50;99.90;;;;;;5099268;28;20028;-75
2021/04/29 12:27:22;;;;;;;50.08;35.72;;;10.40;99.90;;;;;;5103911;28;20457;-74
2021/04/29 12:30:05;;;;;;;48.28;36.92;;;10.50;99.90;;;;;;5107393;28;20028;-75
2021/04/29 12:32:42;;;;;;;45.88;33.83;;;10.50;99.90;;;;;;5100971;28;20036;-75
2021/04/29 12:35:28;;;;;;;57.50;37.42;;;10.40;99.90;;;;;;5100794;28;20170;-75
2021/04/29 12:38:00;;;;;;;45.22;33.78;;;10.90;99.90;;;;;;5099832;28;20120;-75
2021/04/29 12:40:31;;;;;;;48.30;34.30;;;10.30;99.90;;;;;;5100275;28;20046;-74
2021/04/29 12:43:30;;;;;;;57.58;37.17;;;10.30;99.90;;;;;;5084589;28;20043;-75